createdAt,value
2022-09-28T00:00:33.386Z,96882.84
2022-09-28T00:01:36.289Z,96877.50
2022-09-28T00:02:39.495Z,96873.94
2022-09-28T00:03:42.496Z,96873.31
2022-09-28T00:04:45.169Z,96871.50
2022-09-28T00:05:47.777Z,96865.34
2022-09-28T00:06:50.454Z,96866.59
2022-09-28T00:07:54.356Z,96863.84
2022-09-28T00:08:57.845Z,96862.75
2022-09-28T00:10:00.554Z,96859.69
2022-09-28T00:11:04.727Z,96855.09
2022-09-28T00:12:07.375Z,96844.66
2022-09-28T00:13:09.971Z,96846.34
2022-09-28T00:14:13.078Z,96844.34
2022-09-28T00:15:15.682Z,96853.13
2022-09-28T00:16:22.051Z,96848.81
2022-09-28T00:17:26.794Z,96845.87
2022-09-28T00:18:30.002Z,96841.44
2022-09-28T00:19:32.895Z,96842.06
2022-09-28T00:20:35.523Z,96840.81
2022-09-28T00:21:41.075Z,96839.31
2022-09-28T00:22:43.873Z,96841.44
2022-09-28T00:24:05.144Z,96834.53
2022-09-28T00:25:08.334Z,96847.59
2022-09-28T00:26:14.106Z,96859.38
2022-09-28T00:27:18.318Z,96855.25
2022-09-28T00:28:22.021Z,96854.66
2022-09-28T00:29:30.153Z,96861.22
2022-09-28T00:30:32.775Z,96864.31
2022-09-28T00:31:35.675Z,96867.06
2022-09-28T00:32:38.351Z,96863.53
2022-09-28T00:33:40.880Z,96863.84
2022-09-28T00:34:49.123Z,96859.56
2022-09-28T00:35:59.014Z,96860.19
2022-09-28T00:37:04.051Z,96863.53
2022-09-28T00:38:09.732Z,96862.94
2022-09-28T00:39:14.769Z,96862.31
2022-09-28T00:40:18.480Z,96872.28
2022-09-28T00:41:21.114Z,96866.91
2022-09-28T00:42:26.931Z,96869.06
2022-09-28T00:43:29.418Z,96871.66
2022-09-28T00:44:37.959Z,96870.56
2022-09-28T00:45:40.816Z,96869.84
2022-09-28T00:46:43.638Z,96873.69
2022-09-28T00:47:59.662Z,96867.69
2022-09-28T00:49:08.916Z,96871.97
2022-09-28T00:50:18.613Z,96873.38
2022-09-28T00:51:21.620Z,96872.00
2022-09-28T00:52:50.398Z,96861.41
2022-09-28T00:53:56.592Z,96862.94
2022-09-28T00:55:02.073Z,96855.88
2022-09-28T00:56:12.894Z,96864.16
2022-09-28T00:57:16.576Z,96861.22
2022-09-28T00:58:24.276Z,96853.56
2022-09-28T00:59:27.034Z,96854.66
2022-09-28T01:00:29.690Z,96861.69
2022-09-28T01:01:32.443Z,96850.63
2022-09-28T01:02:35.182Z,96853.53
2022-09-28T01:03:38.745Z,96862.75
2022-09-28T01:04:41.433Z,96855.88
2022-09-28T01:05:46.161Z,96855.56
2022-09-28T01:06:50.054Z,96857.84
2022-09-28T01:07:54.244Z,96852.31
2022-09-28T01:09:00.261Z,96862.59
2022-09-28T01:10:04.162Z,96858.16
2022-09-28T01:11:07.260Z,96855.72
2022-09-28T01:12:09.860Z,96867.81
2022-09-28T01:13:13.212Z,96869.37
2022-09-28T01:14:16.650Z,96866.44
2022-09-28T01:15:22.039Z,96861.22
2022-09-28T01:16:43.235Z,96863.53
2022-09-28T01:18:07.728Z,96864.12
2022-09-28T01:19:45.511Z,96859.25
2022-09-28T01:21:04.108Z,96867.84
2022-09-28T01:22:20.671Z,96860.34
2022-09-28T01:23:29.222Z,96863.25
2022-09-28T01:24:37.978Z,96868.47
2022-09-28T01:25:52.587Z,96869.22
2022-09-28T01:27:15.988Z,96871.53
2022-09-28T01:28:21.365Z,96873.50
2022-09-28T01:29:36.149Z,96869.81
2022-09-28T01:30:47.872Z,96873.38
2022-09-28T01:31:58.232Z,96877.97
2022-09-28T01:33:09.792Z,96878.13
2022-09-28T01:34:18.969Z,96869.34
2022-09-28T01:35:31.587Z,96872.28
2022-09-28T01:36:42.924Z,96874.63
2022-09-28T01:37:52.414Z,96871.38
2022-09-28T01:39:16.943Z,96878.91
2022-09-28T01:40:22.864Z,96876.13
2022-09-28T01:41:29.014Z,96880.44
2022-09-28T01:42:36.383Z,96885.47
2022-09-28T01:43:43.295Z,96885.06
2022-09-28T01:44:50.297Z,96887.06
2022-09-28T01:46:00.122Z,96882.88
2022-09-28T01:47:04.518Z,96888.88
2022-09-28T01:48:10.515Z,96890.41
2022-09-28T01:49:35.440Z,96882.88
2022-09-28T01:50:41.474Z,96891.19
2022-09-28T01:52:13.432Z,96900.84
2022-09-28T01:53:32.680Z,96898.53
2022-09-28T01:54:41.791Z,96900.53
2022-09-28T01:55:48.365Z,96893.63
2022-09-28T01:56:57.190Z,96887.19
2022-09-28T01:58:17.032Z,96894.25
2022-09-28T01:59:26.355Z,96891.34
2022-09-28T02:00:29.780Z,96889.03
2022-09-28T02:01:44.301Z,96889.03
2022-09-28T02:02:54.844Z,96887.50
2022-09-28T02:04:08.651Z,96889.63
2022-09-28T02:05:11.317Z,96887.34
2022-09-28T02:06:21.856Z,96882.59
2022-09-28T02:07:38.889Z,96880.75
2022-09-28T02:08:50.775Z,96888.72
2022-09-28T02:10:01.617Z,96877.19
2022-09-28T02:11:08.003Z,96888.25
2022-09-28T02:12:16.436Z,96889.31
2022-09-28T02:13:25.572Z,96880.25
2022-09-28T02:14:30.826Z,96882.25
2022-09-28T02:15:45.139Z,96882.56
2022-09-28T02:16:50.777Z,96898.53
2022-09-28T02:17:54.568Z,96880.59
2022-09-28T02:18:57.224Z,96881.47
2022-09-28T02:20:00.149Z,96891.31
2022-09-28T02:21:13.416Z,96884.69
2022-09-28T02:22:37.475Z,96884.37
2022-09-28T02:23:49.277Z,96883.75
2022-09-28T02:25:12.172Z,96889.31
2022-09-28T02:26:20.505Z,96884.22
2022-09-28T02:28:01.273Z,96880.09
2022-09-28T02:29:04.457Z,96883.78
2022-09-28T02:30:08.138Z,96875.50
2022-09-28T02:31:10.856Z,96879.00
2022-09-28T02:32:13.760Z,96882.38
2022-09-28T02:33:19.191Z,96878.50
2022-09-28T02:34:21.864Z,96879.47
2022-09-28T02:35:24.510Z,96880.06
2022-09-28T02:36:28.832Z,96879.75
2022-09-28T02:37:31.428Z,96881.28
2022-09-28T02:38:34.284Z,96884.03
2022-09-28T02:39:37.115Z,96882.50
2022-09-28T02:40:40.640Z,96884.28
2022-09-28T02:42:07.056Z,96890.16
2022-09-28T02:43:26.761Z,96879.44
2022-09-28T02:45:02.459Z,96878.66
2022-09-28T02:46:36.406Z,96870.84
2022-09-28T02:47:57.792Z,96875.22
2022-09-28T02:49:34.522Z,96874.03
2022-09-28T02:50:42.099Z,96880.38
2022-09-28T02:52:05.461Z,96874.50
2022-09-28T02:53:16.910Z,96882.03
2022-09-28T02:54:47.024Z,96881.41
2022-09-28T02:56:00.796Z,96887.78
2022-09-28T02:57:33.960Z,96887.94
2022-09-28T02:59:01.872Z,96891.78
2022-09-28T03:00:13.129Z,96890.50
2022-09-28T03:01:18.618Z,96894.19
2022-09-28T03:02:52.526Z,96899.75
2022-09-28T03:04:06.289Z,96901.88
2022-09-28T03:05:11.822Z,96903.28
2022-09-28T03:06:30.720Z,96906.22
2022-09-28T03:07:41.939Z,96902.81
2022-09-28T03:09:09.154Z,96910.94
2022-09-28T03:10:24.008Z,96908.03
2022-09-28T03:11:36.835Z,96898.53
2022-09-28T03:12:39.715Z,96906.22
2022-09-28T03:13:42.835Z,96898.53
2022-09-28T03:14:45.891Z,96905.28
2022-09-28T03:15:49.071Z,96893.00
2022-09-28T03:16:51.932Z,96900.38
2022-09-28T03:17:54.953Z,96906.19
2022-09-28T03:18:57.893Z,96903.28
2022-09-28T03:20:00.560Z,96909.72
2022-09-28T03:21:05.459Z,96900.84
2022-09-28T03:22:08.262Z,96915.88
2022-09-28T03:23:26.134Z,96914.44
2022-09-28T03:24:29.022Z,96926.00
2022-09-28T03:25:31.964Z,96920.31
2022-09-28T03:26:34.602Z,96928.59
2022-09-28T03:27:37.312Z,96920.50
2022-09-28T03:28:40.453Z,96923.53
2022-09-28T03:29:43.077Z,96919.22
2022-09-28T03:30:45.720Z,96911.22
2022-09-28T03:31:49.267Z,96916.00
2022-09-28T03:33:02.619Z,96913.53
2022-09-28T03:34:05.283Z,96916.00
2022-09-28T03:35:09.495Z,96917.72
2022-09-28T03:36:12.258Z,96920.50
2022-09-28T03:37:14.886Z,96917.88
2022-09-28T03:38:19.043Z,96920.31
2022-09-28T03:39:21.734Z,96927.38
2022-09-28T03:40:24.678Z,96919.41
2022-09-28T03:41:30.665Z,96924.63
2022-09-28T03:42:35.990Z,96920.34
2022-09-28T03:43:38.607Z,96920.66
2022-09-28T03:44:41.225Z,96922.94
2022-09-28T03:45:43.850Z,96914.97
2022-09-28T03:46:46.883Z,96922.03
2022-09-28T03:47:49.497Z,96916.81
2022-09-28T03:48:52.037Z,96917.13
2022-09-28T03:49:54.532Z,96921.87
2022-09-28T03:50:59.012Z,96923.25
2022-09-28T03:52:02.324Z,96928.81
2022-09-28T03:53:04.994Z,96922.78
2022-09-28T03:54:07.628Z,96920.19
2022-09-28T03:55:10.999Z,96925.88
2022-09-28T03:56:15.702Z,96919.56
2022-09-28T03:57:18.280Z,96914.19
2022-09-28T03:58:21.880Z,96913.28
2022-09-28T03:59:24.434Z,96915.28
2022-09-28T04:00:27.698Z,96915.91
2022-09-28T04:01:30.376Z,96918.19
2022-09-28T04:02:34.933Z,96920.50
2022-09-28T04:03:38.048Z,96920.19
2022-09-28T04:04:40.645Z,96921.13
2022-09-28T04:05:50.792Z,96926.62
2022-09-28T04:06:53.348Z,96922.78
2022-09-28T04:07:59.022Z,96928.00
2022-09-28T04:09:01.716Z,96926.19
2022-09-28T04:10:04.921Z,96928.63
2022-09-28T04:11:07.740Z,96919.88
2022-09-28T04:12:10.375Z,96922.50
2022-09-28T04:13:13.009Z,96918.19
2022-09-28T04:14:15.616Z,96915.75
2022-09-28T04:15:18.234Z,96918.03
2022-09-28T04:16:20.970Z,96922.00
2022-09-28T04:17:25.152Z,96924.00
2022-09-28T04:18:28.304Z,96914.34
2022-09-28T04:19:30.880Z,96927.41
2022-09-28T04:20:33.499Z,96928.47
2022-09-28T04:21:37.919Z,96920.19
2022-09-28T04:22:40.604Z,96918.47
2022-09-28T04:23:45.188Z,96922.97
2022-09-28T04:24:47.835Z,96918.03
2022-09-28T04:25:56.154Z,96918.03
2022-09-28T04:27:18.825Z,96925.69
2022-09-28T04:28:39.963Z,96919.28
2022-09-28T04:29:44.124Z,96919.56
2022-09-28T04:30:48.111Z,96919.09
2022-09-28T04:31:52.876Z,96921.25
2022-09-28T04:32:55.780Z,96919.09
2022-09-28T04:34:02.153Z,96927.22
2022-09-28T04:35:05.114Z,96924.78
2022-09-28T04:36:09.561Z,96922.66
2022-09-28T04:37:12.227Z,96921.72
2022-09-28T04:38:14.927Z,96919.56
2022-09-28T04:39:19.487Z,96922.31
2022-09-28T04:40:22.215Z,96928.78
2022-09-28T04:41:29.070Z,96928.59
2022-09-28T04:42:31.586Z,96921.56
2022-09-28T04:43:34.320Z,96925.84
2022-09-28T04:44:36.922Z,96929.81
2022-09-28T04:45:39.606Z,96926.00
2022-09-28T04:46:42.407Z,96929.81
2022-09-28T04:47:45.318Z,96931.50
2022-09-28T04:48:47.894Z,96929.22
2022-09-28T04:49:50.538Z,96932.44
2022-09-28T04:50:54.848Z,96935.81
2022-09-28T04:51:57.558Z,96931.09
2022-09-28T04:53:04.257Z,96922.50
2022-09-28T04:54:07.013Z,96932.16
2022-09-28T04:55:13.342Z,96924.78
2022-09-28T04:56:17.070Z,96930.00
2022-09-28T04:57:19.798Z,96928.91
2022-09-28T04:58:23.434Z,96917.72
2022-09-28T04:59:30.259Z,96927.81
2022-09-28T05:00:34.880Z,96924.31
2022-09-28T05:01:37.889Z,96921.97
2022-09-28T05:02:40.463Z,96925.53
2022-09-28T05:03:44.366Z,96922.16
2022-09-28T05:04:47.026Z,96925.06
2022-09-28T05:05:49.939Z,96924.41
2022-09-28T05:06:52.559Z,96921.66
2022-09-28T05:07:59.220Z,96916.91
2022-09-28T05:09:01.751Z,96920.59
2022-09-28T05:10:05.396Z,96919.69
2022-09-28T05:11:11.156Z,96920.00
2022-09-28T05:12:13.696Z,96921.37
2022-09-28T05:13:18.806Z,96919.53
2022-09-28T05:14:24.604Z,96919.06
2022-09-28T05:15:27.227Z,96918.59
2022-09-28T05:16:31.187Z,96919.50
2022-09-28T05:17:34.007Z,96925.97
2022-09-28T05:18:36.983Z,96922.28
2022-09-28T05:19:39.647Z,96926.25
2022-09-28T05:20:42.411Z,96924.44
2022-09-28T05:21:47.001Z,96926.75
2022-09-28T05:22:49.728Z,96926.16
2022-09-28T05:25:12.750Z,96927.06
2022-09-28T05:26:15.429Z,96931.38
2022-09-28T05:27:17.978Z,96924.63
2022-09-28T05:28:26.433Z,96927.81
2022-09-28T05:29:32.047Z,96933.81
2022-09-28T05:30:36.248Z,96928.91
2022-09-28T05:31:38.945Z,96933.22
2022-09-28T05:32:42.618Z,96931.22
2022-09-28T05:33:45.126Z,96927.66
2022-09-28T05:34:48.141Z,96933.03
2022-09-28T05:35:54.445Z,96929.06
2022-09-28T05:36:58.666Z,96934.12
2022-09-28T05:38:05.601Z,96938.28
2022-09-28T05:39:08.969Z,96934.59
2022-09-28T05:40:12.103Z,96933.84
2022-09-28T05:41:14.866Z,96930.00
2022-09-28T05:42:17.545Z,96929.06
2022-09-28T05:43:20.259Z,96934.59
2022-09-28T05:44:22.901Z,96930.75
2022-09-28T05:45:25.649Z,96931.97
2022-09-28T05:46:28.623Z,96930.28
2022-09-28T05:47:31.492Z,96932.59
2022-09-28T05:48:34.348Z,96928.75
2022-09-28T05:49:37.104Z,96934.59
2022-09-28T05:50:39.874Z,96927.66
2022-09-28T05:51:42.713Z,96934.25
2022-09-28T05:52:45.598Z,96930.28
2022-09-28T05:53:48.293Z,96931.06
2022-09-28T05:54:50.959Z,96930.00
2022-09-28T05:55:57.331Z,96941.66
2022-09-28T05:56:59.912Z,96937.66
2022-09-28T05:58:06.022Z,96935.06
2022-09-28T05:59:09.558Z,96936.44
2022-09-28T06:00:12.551Z,96934.12
2022-09-28T06:01:15.474Z,96932.44
2022-09-28T06:02:18.247Z,96929.53
2022-09-28T06:03:20.942Z,96929.69
2022-09-28T06:04:23.643Z,96933.38
2022-09-28T06:05:27.706Z,96929.53
2022-09-28T06:06:30.328Z,96927.53
2022-09-28T06:07:33.318Z,96932.44
2022-09-28T06:08:36.043Z,96931.38
2022-09-28T06:09:38.810Z,96936.44
2022-09-28T06:10:41.647Z,96931.38
2022-09-28T06:11:44.330Z,96931.41
2022-09-28T06:12:48.100Z,96935.41
2022-09-28T06:13:55.256Z,96931.56
2022-09-28T06:14:58.773Z,96930.19
2022-09-28T06:16:04.908Z,96935.41
2022-09-28T06:17:07.703Z,96937.81
2022-09-28T06:18:15.748Z,96929.50
2022-09-28T06:19:18.526Z,96927.84
2022-09-28T06:20:21.137Z,96926.59
2022-09-28T06:21:23.845Z,96928.72
2022-09-28T06:22:26.391Z,96929.00
2022-09-28T06:23:28.989Z,96928.22
2022-09-28T06:24:31.704Z,96921.19
2022-09-28T06:25:34.409Z,96922.56
2022-09-28T06:26:37.132Z,96925.94
2022-09-28T06:27:40.792Z,96927.03
2022-09-28T06:28:43.353Z,96926.81
2022-09-28T06:29:46.281Z,96928.94
2022-09-28T06:30:48.906Z,96925.75
2022-09-28T06:31:51.774Z,96933.72
2022-09-28T06:32:56.433Z,96934.12
2022-09-28T06:34:02.276Z,96939.94
2022-09-28T06:35:05.266Z,96934.06
2022-09-28T06:36:09.964Z,96942.00
2022-09-28T06:37:12.562Z,96932.31
2022-09-28T06:38:15.305Z,96939.06
2022-09-28T06:39:18.209Z,96939.19
2022-09-28T06:40:21.948Z,96939.41
2022-09-28T06:41:24.770Z,96932.56
2022-09-28T06:42:27.467Z,96933.94
2022-09-28T06:43:34.231Z,96934.88
2022-09-28T06:44:37.085Z,96941.69
2022-09-28T06:45:39.665Z,96937.75
2022-09-28T06:46:42.359Z,96942.81
2022-09-28T06:47:44.984Z,96943.75
2022-09-28T06:48:47.675Z,96946.56
2022-09-28T06:49:55.587Z,96947.78
2022-09-28T06:50:58.373Z,96942.31
2022-09-28T06:52:01.535Z,96941.34
2022-09-28T06:53:06.873Z,96944.78
2022-09-28T06:54:09.950Z,96948.16
2022-09-28T06:55:12.505Z,96955.44
2022-09-28T06:56:15.346Z,96956.56
2022-09-28T06:57:18.721Z,96950.00
2022-09-28T06:58:22.490Z,96951.31
2022-09-28T06:59:25.136Z,96947.38
2022-09-28T07:00:29.186Z,96953.81
2022-09-28T07:01:31.917Z,96953.81
2022-09-28T07:02:34.760Z,96952.19
2022-09-28T07:03:37.541Z,96951.59
2022-09-28T07:04:43.503Z,96952.25
2022-09-28T07:05:50.519Z,96946.00
2022-09-28T07:06:53.884Z,96954.06
2022-09-28T07:07:57.342Z,96958.34
2022-09-28T07:09:24.016Z,96953.72
2022-09-28T07:10:29.990Z,96952.13
2022-09-28T07:11:39.827Z,96948.59
2022-09-28T07:12:42.570Z,96958.41
2022-09-28T07:13:50.709Z,96954.38
2022-09-28T07:14:57.604Z,96958.03
2022-09-28T07:16:00.288Z,96950.44
2022-09-28T07:17:13.084Z,96950.00
2022-09-28T07:18:20.362Z,96953.03
2022-09-28T07:19:23.137Z,96952.25
2022-09-28T07:20:32.912Z,96947.44
2022-09-28T07:21:37.151Z,96946.66
2022-09-28T07:22:43.309Z,96946.75
2022-09-28T07:23:53.348Z,96943.97
2022-09-28T07:24:57.851Z,96945.19
2022-09-28T07:26:07.799Z,96947.31
2022-09-28T07:27:11.748Z,96941.19
2022-09-28T07:28:15.111Z,96945.81
2022-09-28T07:29:19.188Z,96944.72
2022-09-28T07:30:21.911Z,96936.34
2022-09-28T07:31:25.431Z,96940.34
2022-09-28T07:32:28.748Z,96939.53
2022-09-28T07:33:32.923Z,96942.16
2022-09-28T07:34:44.035Z,96936.53
2022-09-28T07:35:55.869Z,96941.19
2022-09-28T07:37:02.379Z,96938.50
2022-09-28T07:38:07.261Z,96932.84
2022-09-28T07:39:12.349Z,96929.69
2022-09-28T07:40:33.430Z,96928.59
2022-09-28T07:41:36.394Z,96926.47
2022-09-28T07:42:38.977Z,96938.03
2022-09-28T07:43:41.996Z,96938.56
2022-09-28T07:44:44.611Z,96930.81
2022-09-28T07:45:57.086Z,96942.81
2022-09-28T07:46:59.625Z,96942.13
2022-09-28T07:48:03.370Z,96946.16
2022-09-28T07:49:09.743Z,96941.88
2022-09-28T07:50:15.244Z,96943.34
2022-09-28T07:51:20.181Z,96940.25
2022-09-28T07:52:26.594Z,96951.22
2022-09-28T07:53:29.931Z,96947.38
2022-09-28T07:54:32.569Z,96951.13
2022-09-28T07:55:35.190Z,96955.69
2022-09-28T07:56:37.929Z,96958.56
2022-09-28T07:57:40.564Z,96954.06
2022-09-28T07:58:43.931Z,96957.88
2022-09-28T07:59:46.932Z,96961.41
2022-09-28T08:00:50.599Z,96950.13
2022-09-28T08:01:53.459Z,96961.53
2022-09-28T08:03:00.235Z,96960.03
2022-09-28T08:04:02.841Z,96959.78
2022-09-28T08:05:05.822Z,96952.91
2022-09-28T08:06:11.509Z,96965.69
2022-09-28T08:07:19.414Z,96958.78
2022-09-28T08:08:25.615Z,96961.00
2022-09-28T08:09:28.657Z,96954.06
2022-09-28T08:10:31.739Z,96957.00
2022-09-28T08:11:34.359Z,96954.78
2022-09-28T08:12:40.935Z,96964.34
2022-09-28T08:13:45.682Z,96955.53
2022-09-28T08:14:49.373Z,96956.97
2022-09-28T08:15:55.432Z,96961.06
2022-09-28T08:16:58.155Z,96961.81
2022-09-28T08:18:02.856Z,96946.31
2022-09-28T08:19:05.747Z,96943.94
2022-09-28T08:20:27.403Z,96940.06
2022-09-28T08:21:45.350Z,96944.72
2022-09-28T08:22:47.921Z,96931.31
2022-09-28T08:23:50.959Z,96925.09
2022-09-28T08:24:53.559Z,96927.31
2022-09-28T08:25:56.209Z,96922.75
2022-09-28T08:27:00.125Z,96920.25
2022-09-28T08:28:02.933Z,96914.78
2022-09-28T08:29:06.403Z,96922.63
2022-09-28T08:30:09.616Z,96915.06
2022-09-28T08:31:12.672Z,96920.81
2022-09-28T08:32:17.051Z,96917.44
2022-09-28T08:33:24.115Z,96913.16
2022-09-28T08:34:27.486Z,96911.53
2022-09-28T08:35:30.096Z,96920.91
2022-09-28T08:36:33.815Z,96920.44
2022-09-28T08:37:36.549Z,96926.75
2022-09-28T08:38:40.639Z,96916.88
2022-09-28T08:39:43.339Z,96924.31
2022-09-28T08:41:04.325Z,96926.41
2022-09-28T08:42:31.807Z,96930.84
2022-09-28T08:43:57.658Z,96938.94
2022-09-28T08:45:08.729Z,96941.75
2022-09-28T08:46:13.667Z,96947.66
2022-09-28T08:47:45.775Z,96947.59
2022-09-28T08:50:32.747Z,96953.19
2022-09-28T08:51:55.573Z,96946.81
2022-09-28T08:53:06.264Z,96953.63
2022-09-28T08:54:14.733Z,96940.47
2022-09-28T08:55:47.011Z,96940.41
2022-09-28T08:57:03.755Z,96944.09
2022-09-28T08:58:22.496Z,96951.03
2022-09-28T08:59:31.784Z,96943.31
2022-09-28T09:00:46.578Z,96942.88
2022-09-28T09:01:57.969Z,96943.06
2022-09-28T09:03:06.493Z,96937.25
2022-09-28T09:04:09.712Z,96932.97
2022-09-28T09:05:15.001Z,96937.06
2022-09-28T09:06:40.147Z,96938.72
2022-09-28T09:07:56.081Z,96945.03
2022-09-28T09:09:12.708Z,96935.06
2022-09-28T09:10:44.772Z,96938.22
2022-09-28T09:11:52.816Z,96936.81
2022-09-28T09:13:14.076Z,96934.53
2022-09-28T09:14:38.146Z,96927.69
2022-09-28T09:15:59.212Z,96925.03
2022-09-28T09:17:37.428Z,96930.22
2022-09-28T09:18:46.810Z,96930.50
2022-09-28T09:20:00.151Z,96928.16
2022-09-28T09:21:14.082Z,96927.50
2022-09-28T09:22:51.548Z,96925.50
2022-09-28T09:24:04.642Z,96913.94
2022-09-28T09:25:20.522Z,96910.75
2022-09-28T09:26:41.741Z,96914.63
2022-09-28T09:28:03.488Z,96915.13
2022-09-28T09:29:31.848Z,96928.50
2022-09-28T09:31:08.962Z,96922.00
2022-09-28T09:32:43.062Z,96916.03
2022-09-28T09:34:00.679Z,96917.19
2022-09-28T09:35:06.397Z,96918.44
2022-09-28T09:36:23.894Z,96906.78
2022-09-28T09:37:58.589Z,96914.56
2022-09-28T09:39:01.340Z,96919.25
2022-09-28T09:40:26.485Z,96923.13
2022-09-28T09:42:02.192Z,96912.53
2022-09-28T09:43:31.622Z,96904.09
2022-09-28T09:45:07.333Z,96918.00
2022-09-28T09:46:31.819Z,96916.31
2022-09-28T09:47:46.404Z,96927.75
2022-09-28T09:48:58.593Z,96917.84
2022-09-28T09:50:30.006Z,96920.63
2022-09-28T09:51:57.195Z,96914.66
2022-09-28T09:53:14.785Z,96929.13
2022-09-28T09:54:20.452Z,96928.34
2022-09-28T09:55:46.381Z,96931.97
2022-09-28T09:57:03.903Z,96935.53
2022-09-28T09:58:12.343Z,96929.75
2022-09-28T09:59:24.377Z,96927.03
2022-09-28T10:00:27.091Z,96925.31
2022-09-28T10:01:37.472Z,96937.63
2022-09-28T10:02:44.410Z,96916.16
2022-09-28T10:03:48.722Z,96920.25
2022-09-28T10:04:57.520Z,96926.56
2022-09-28T10:06:08.899Z,96924.41
2022-09-28T10:07:25.044Z,96923.59
2022-09-28T10:08:30.821Z,96927.56
2022-09-28T10:09:39.998Z,96923.38
2022-09-28T10:11:12.878Z,96925.00
2022-09-28T10:12:20.338Z,96929.81
2022-09-28T10:13:23.375Z,96918.69
2022-09-28T10:14:26.510Z,96919.78
2022-09-28T10:15:32.796Z,96938.50
2022-09-28T10:16:36.097Z,96935.03
2022-09-28T10:17:39.135Z,96933.75
2022-09-28T10:18:41.847Z,96933.22
2022-09-28T10:19:44.776Z,96935.69
2022-09-28T10:20:47.578Z,96928.22
2022-09-28T10:21:53.034Z,96929.19
2022-09-28T10:23:02.307Z,96922.16
2022-09-28T10:24:05.206Z,96930.81
2022-09-28T10:25:10.054Z,96927.88
2022-09-28T10:26:19.571Z,96929.69
2022-09-28T10:27:29.757Z,96922.63
2022-09-28T10:28:45.518Z,96933.19
2022-09-28T10:29:58.216Z,96930.03
2022-09-28T10:31:38.109Z,96917.06
2022-09-28T10:32:46.024Z,96937.53
2022-09-28T10:33:48.645Z,96935.22
2022-09-28T10:34:53.071Z,96930.50
2022-09-28T10:35:56.211Z,96929.81
2022-09-28T10:37:05.613Z,96933.59
2022-09-28T10:38:18.808Z,96934.41
2022-09-28T10:39:32.871Z,96933.47
2022-09-28T10:40:46.119Z,96931.00
2022-09-28T10:41:50.893Z,96931.06
2022-09-28T10:43:00.922Z,96922.16
2022-09-28T10:44:07.431Z,96931.34
2022-09-28T10:45:13.979Z,96932.84
2022-09-28T10:46:23.675Z,96933.91
2022-09-28T10:47:30.733Z,96930.31
2022-09-28T10:48:50.628Z,96924.88
2022-09-28T10:49:55.359Z,96926.34
2022-09-28T10:51:05.839Z,96925.69
2022-09-28T10:52:41.774Z,96928.84
2022-09-28T10:54:00.946Z,96939.66
2022-09-28T10:55:32.825Z,96924.88
2022-09-28T10:56:37.526Z,96920.00
2022-09-28T10:57:40.971Z,96916.75
2022-09-28T10:58:44.479Z,96917.34
2022-09-28T10:59:47.302Z,96912.09
2022-09-28T11:00:50.373Z,96905.78
2022-09-28T11:01:59.630Z,96911.75
2022-09-28T11:03:06.425Z,96912.56
2022-09-28T11:04:22.369Z,96912.13
2022-09-28T11:05:30.155Z,96911.00
2022-09-28T11:06:38.554Z,96914.47
2022-09-28T11:07:48.520Z,96920.28
2022-09-28T11:08:51.714Z,96901.56
2022-09-28T11:09:55.538Z,96903.22
2022-09-28T11:11:07.210Z,96895.78
2022-09-28T11:12:15.785Z,96904.69
2022-09-28T11:13:18.430Z,96894.66
2022-09-28T11:14:41.282Z,96903.88
2022-09-28T11:15:45.164Z,96902.56
2022-09-28T11:16:47.856Z,96896.31
2022-09-28T11:17:50.832Z,96896.06
2022-09-28T11:18:53.761Z,96893.94
2022-09-28T11:19:59.742Z,96890.16
2022-09-28T11:21:17.572Z,96891.25
2022-09-28T11:22:22.509Z,96897.50
2022-09-28T11:23:31.260Z,96890.75
2022-09-28T11:24:34.141Z,96886.38
2022-09-28T11:25:36.831Z,96886.72
2022-09-28T11:26:42.843Z,96892.44
2022-09-28T11:27:51.428Z,96878.78
2022-09-28T11:28:54.251Z,96875.31
2022-09-28T11:29:59.161Z,96876.13
2022-09-28T11:31:03.171Z,96876.47
2022-09-28T11:32:06.796Z,96885.81
2022-09-28T11:33:25.470Z,96890.75
2022-09-28T11:34:54.966Z,96898.41
2022-09-28T11:36:13.196Z,96894.56
2022-09-28T11:37:38.311Z,96884.34
2022-09-28T11:39:33.488Z,96881.31
2022-09-28T11:41:09.786Z,96888.63
2022-09-28T11:42:35.729Z,96892.44
2022-09-28T11:43:44.294Z,96885.81
2022-09-28T11:44:48.989Z,96896.47
2022-09-28T11:45:59.397Z,96885.22
2022-09-28T11:47:25.517Z,96884.47
2022-09-28T11:48:37.889Z,96889.03
2022-09-28T11:50:06.898Z,96892.44
2022-09-28T11:51:19.932Z,96876.13
2022-09-28T11:52:32.693Z,96876.13
2022-09-28T11:53:50.011Z,96875.75
2022-09-28T11:54:57.488Z,96862.81
2022-09-28T11:56:15.015Z,96868.91
2022-09-28T11:57:30.372Z,96867.78
2022-09-28T11:58:43.464Z,96877.22
2022-09-28T12:00:04.371Z,96866.66
2022-09-28T12:01:35.823Z,96871.09
2022-09-28T12:03:36.118Z,96862.06
2022-09-28T12:04:54.579Z,96855.66
2022-09-28T12:06:05.408Z,96848.81
2022-09-28T12:07:29.821Z,96846.13
2022-09-28T12:08:37.598Z,96839.28
2022-09-28T12:09:53.581Z,96836.53
2022-09-28T12:11:09.999Z,96842.00
2022-09-28T12:12:28.525Z,96847.69
2022-09-28T12:13:37.344Z,96837.81
2022-09-28T12:14:40.922Z,96841.56
2022-09-28T12:16:12.956Z,96844.59
2022-09-28T12:17:48.438Z,96851.47
2022-09-28T12:18:57.328Z,96854.44
2022-09-28T12:20:14.760Z,96835.91
2022-09-28T12:21:54.833Z,96835.88
2022-09-28T12:22:59.933Z,96829.03
2022-09-28T12:24:27.132Z,96837.81
2022-09-28T12:25:47.016Z,96843.16
2022-09-28T12:26:54.921Z,96832.47
2022-09-28T12:28:22.756Z,96844.75
2022-09-28T12:29:41.743Z,96832.72
2022-09-28T12:30:47.750Z,96825.78
2022-09-28T12:32:14.549Z,96819.50
2022-09-28T12:33:17.276Z,96839.34
2022-09-28T12:34:21.495Z,96826.47
2022-09-28T12:35:33.296Z,96817.84
2022-09-28T12:37:09.437Z,96806.84
2022-09-28T12:38:21.215Z,96811.72
2022-09-28T12:39:56.530Z,96825.69
2022-09-28T12:41:19.978Z,96821.72
2022-09-28T12:42:46.407Z,96822.53
2022-09-28T12:44:19.814Z,96817.63
2022-09-28T12:46:09.932Z,96820.00
2022-09-28T12:47:42.196Z,96818.47
2022-09-28T12:49:43.598Z,96804.44
2022-09-28T12:51:11.774Z,96820.03
2022-09-28T12:53:03.155Z,96818.06
2022-09-28T12:54:25.375Z,96809.31
2022-09-28T12:55:56.203Z,96812.03
2022-09-28T12:57:24.437Z,96823.78
2022-09-28T12:58:37.166Z,96815.09
2022-09-28T13:00:06.591Z,96820.09
2022-09-28T13:01:30.317Z,96824.31
2022-09-28T13:02:37.133Z,96822.44
2022-09-28T13:04:03.909Z,96814.16
2022-09-28T13:05:32.233Z,96822.03
2022-09-28T13:06:53.581Z,96828.94
2022-09-28T13:08:18.326Z,96820.94
2022-09-28T13:09:29.367Z,96818.72
2022-09-28T13:10:43.021Z,96818.41
2022-09-28T13:12:13.637Z,96818.41
2022-09-28T13:13:54.710Z,96815.81
2022-09-28T13:19:33.013Z,96809.00
2022-09-28T13:21:03.522Z,96809.00
2022-09-28T13:22:35.387Z,96816.97
2022-09-28T13:23:46.805Z,96822.94
2022-09-28T13:24:51.554Z,96813.72
2022-09-28T13:25:57.126Z,96827.88
2022-09-28T13:27:05.621Z,96825.28
2022-09-28T13:28:15.674Z,96814.34
2022-09-28T13:29:20.948Z,96818.38
2022-09-28T13:30:23.666Z,96821.81
2022-09-28T13:31:33.971Z,96809.09
2022-09-28T13:32:42.721Z,96821.91
2022-09-28T13:33:46.959Z,96806.47
2022-09-28T13:34:50.711Z,96826.69
2022-09-28T13:35:53.497Z,96821.03
2022-09-28T13:37:11.390Z,96802.59
2022-09-28T13:38:17.598Z,96810.44
2022-09-28T13:39:52.144Z,96817.75
2022-09-28T13:41:06.921Z,96811.34
2022-09-28T13:42:11.762Z,96810.38
2022-09-28T13:43:33.285Z,96813.13